Time,TemperatureF,DewpointF,PressureIn,WindDirection,WindDirectionDegrees,WindSpeedMPH,WindSpeedGustMPH,Humidity,HourlyPrecipIn,Conditions,Clouds,dailyrainin,SoftwareType,DateUTC
2013-05-02 00:00:00,49.5,34.4,30.30,SSW,212,8.1,16.1,56,0.00,,---,0.00,VWS V14.01,2013-05-02 04:00:00,
2013-05-02 00:05:00,48.9,34.4,30.30,SSW,202,6.7,14.3,57,0.00,,---,0.00,VWS V14.01,2013-05-02 04:05:00,
2013-05-02 00:10:00,48.6,34.0,30.30,SSW,197,10.3,10.7,57,0.00,,---,0.00,VWS V14.01,2013-05-02 04:10:00,
2013-05-02 00:15:00,48.4,33.9,30.30,SW,218,6.3,10.3,57,0.00,,---,0.00,VWS V14.01,2013-05-02 04:15:00,
2013-05-02 00:20:00,48.9,34.4,30.30,SW,225,7.2,9.4,57,0.00,,---,0.00,VWS V14.01,2013-05-02 04:20:00,
2013-05-02 00:25:00,48.9,34.4,30.30,SW,216,9.8,12.1,57,0.00,,---,0.00,VWS V14.01,2013-05-02 04:25:00,
2013-05-02 00:30:00,48.9,34.4,30.30,SW,223,12.1,13.0,57,0.00,,---,0.00,VWS V14.01,2013-05-02 04:30:00,
2013-05-02 00:35:00,48.9,34.4,30.30,SW,225,12.5,13.9,57,0.00,,---,0.00,VWS V14.01,2013-05-02 04:35:00,
2013-05-02 00:40:00,49.5,34.4,30.30,SW,218,10.3,14.3,56,0.00,,---,0.00,VWS V14.01,2013-05-02 04:40:00,
2013-05-02 00:45:00,49.5,34.4,30.30,SW,218,9.4,13.4,56,0.00,,---,0.00,VWS V14.01,2013-05-02 04:45:00,
2013-05-02 00:50:00,49.5,34.4,30.30,SW,215,8.1,11.2,56,0.00,,---,0.00,VWS V14.01,2013-05-02 04:50:00,
2013-05-02 00:55:00,49.5,34.4,30.30,SSW,211,8.1,9.4,56,0.00,,---,0.00,VWS V14.01,2013-05-02 04:55:00,
2013-05-02 01:00:00,49.5,34.4,30.30,SSW,194,9.4,10.7,56,0.00,,---,0.00,VWS V14.01,2013-05-02 05:00:00,
2013-05-02 01:05:00,49.5,34.4,30.30,South,188,9.4,11.6,56,0.00,,---,0.00,VWS V14.01,2013-05-02 05:05:00,
2013-05-02 01:10:00,44.8,30.5,30.30,SSW,201,10.7,12.5,57,0.00,,---,0.00,VWS V14.01,2013-05-02 05:10:00,
2013-05-02 01:15:00,44.8,30.5,30.30,SSW,200,10.3,12.1,57,0.00,,---,0.00,VWS V14.01,2013-05-02 05:15:00,
2013-05-02 01:20:00,44.8,30.5,30.30,SSW,207,10.7,11.6,57,0.00,,---,0.00,VWS V14.01,2013-05-02 05:20:00,
2013-05-02 01:25:00,44.8,30.5,30.30,SSW,202,12.1,13.0,57,0.00,,---,0.00,VWS V14.01,2013-05-02 05:25:00,
2013-05-02 01:30:00,44.8,30.5,30.30,South,190,8.9,14.8,57,0.00,,---,0.00,VWS V14.01,2013-05-02 05:30:00,
2013-05-02 01:35:00,44.8,30.5,30.30,SSW,195,13.4,13.4,57,0.00,,---,0.00,VWS V14.01,2013-05-02 05:35:00,
2013-05-02 01:40:00,44.8,30.5,30.30,SSW,205,12.5,15.7,57,0.00,,---,0.00,VWS V14.01,2013-05-02 05:40:00,
2013-05-02 01:45:00,44.8,30.5,30.30,SSW,195,15.7,17.4,57,0.00,,---,0.00,VWS V14.01,2013-05-02 05:45:00,
2013-05-02 01:50:00,44.8,30.5,30.30,South,190,13.0,15.7,57,0.00,,---,0.00,VWS V14.01,2013-05-02 05:50:00,
2013-05-02 01:55:00,43.0,29.2,30.30,South,174,8.5,13.0,58,0.00,,---,0.00,VWS V14.01,2013-05-02 05:55:00,
2013-05-02 02:00:00,42.8,29.1,30.30,SSE,167,8.5,14.3,58,0.00,,---,0.00,VWS V14.01,2013-05-02 06:00:00,
2013-05-02 02:05:00,43.3,29.6,30.30,SSE,166,8.5,14.8,58,0.00,,---,0.00,VWS V14.01,2013-05-02 06:05:00,
2013-05-02 02:10:00,43.3,29.6,30.30,South,185,8.5,12.5,58,0.00,,---,0.00,VWS V14.01,2013-05-02 06:10:00,
2013-05-02 02:15:00,42.8,29.1,30.30,South,187,12.1,19.7,58,0.00,,---,0.00,VWS V14.01,2013-05-02 06:15:00,
2013-05-02 02:20:00,42.8,29.1,30.30,South,177,8.1,14.8,58,0.00,,---,0.00,VWS V14.01,2013-05-02 06:20:00,
2013-05-02 02:25:00,42.8,29.1,30.30,South,185,9.8,13.9,58,0.00,,---,0.00,VWS V14.01,2013-05-02 06:25:00,
2013-05-02 02:30:00,42.8,29.1,30.30,South,183,8.1,11.6,58,0.00,,---,0.00,VWS V14.01,2013-05-02 06:30:00,
2013-05-02 02:35:00,42.8,29.1,30.30,South,187,8.5,10.3,58,0.00,,---,0.00,VWS V14.01,2013-05-02 06:35:00,
2013-05-02 02:40:00,41.5,27.9,30.30,South,185,8.5,9.4,58,0.00,,---,0.00,VWS V14.01,2013-05-02 06:40:00,
2013-05-02 02:45:00,41.5,27.9,30.30,South,184,7.6,12.5,58,0.00,,---,0.00,VWS V14.01,2013-05-02 06:45:00,
2013-05-02 02:50:00,40.5,26.9,30.30,South,184,8.5,10.7,58,0.00,,---,0.00,VWS V14.01,2013-05-02 06:50:00,
2013-05-02 02:55:00,41.0,27.4,30.30,South,187,12.1,14.8,58,0.00,,---,0.00,VWS V14.01,2013-05-02 06:55:00,
2013-05-02 03:00:00,41.7,28.0,30.30,South,185,11.2,15.7,58,0.00,,---,0.00,VWS V14.01,2013-05-02 07:00:00,
2013-05-02 03:05:00,42.3,28.5,30.30,SSW,194,14.8,16.6,58,0.00,,---,0.00,VWS V14.01,2013-05-02 07:05:00,
2013-05-02 03:10:00,41.5,27.9,30.30,South,178,8.1,16.6,58,0.00,,---,0.00,VWS V14.01,2013-05-02 07:10:00,
2013-05-02 03:15:00,41.4,27.7,30.30,South,183,7.2,11.6,58,0.00,,---,0.00,VWS V14.01,2013-05-02 07:15:00,
2013-05-02 03:20:00,41.7,28.0,30.30,SSW,198,12.5,12.5,58,0.00,,---,0.00,VWS V14.01,2013-05-02 07:20:00,
2013-05-02 03:25:00,40.8,27.2,30.30,South,177,5.8,14.3,58,0.00,,---,0.00,VWS V14.01,2013-05-02 07:25:00,
2013-05-02 03:30:00,40.3,26.7,30.30,SSE,164,8.1,11.2,58,0.00,,---,0.00,VWS V14.01,2013-05-02 07:30:00,
2013-05-02 03:35:00,41.2,27.5,30.30,SSE,167,6.3,8.1,58,0.00,,---,0.00,VWS V14.01,2013-05-02 07:35:00,
2013-05-02 03:40:00,41.5,27.9,30.30,SSE,159,7.2,10.7,58,0.00,,---,0.00,VWS V14.01,2013-05-02 07:40:00,
2013-05-02 03:45:00,41.5,27.9,30.30,South,177,6.3,8.5,58,0.00,,---,0.00,VWS V14.01,2013-05-02 07:45:00,
2013-05-02 03:50:00,41.5,27.9,30.30,South,171,7.6,10.3,58,0.00,,---,0.00,VWS V14.01,2013-05-02 07:50:00,
2013-05-02 03:55:00,40.3,26.7,30.30,SSE,161,7.6,8.1,58,0.00,,---,0.00,VWS V14.01,2013-05-02 07:55:00,
2013-05-02 04:05:00,40.3,26.7,30.30,SW,221,5.4,7.2,58,0.00,,---,0.00,VWS V14.01,2013-05-02 08:05:00,
2013-05-02 04:10:00,40.3,26.7,30.30,SSW,204,7.6,8.9,58,0.00,,---,0.00,VWS V14.01,2013-05-02 08:10:00,
2013-05-02 04:15:00,40.3,26.7,30.30,SSW,205,8.1,8.9,58,0.00,,---,0.00,VWS V14.01,2013-05-02 08:15:00,
2013-05-02 04:25:00,40.3,26.7,30.30,SSW,202,5.8,7.6,58,0.00,,---,0.00,VWS V14.01,2013-05-02 08:25:00,
2013-05-02 04:30:00,40.3,26.7,30.30,SSW,194,4.0,6.7,58,0.00,,---,0.00,VWS V14.01,2013-05-02 08:30:00,
2013-05-02 04:40:00,40.3,26.7,30.30,SSW,205,4.9,7.2,58,0.00,,---,0.00,VWS V14.01,2013-05-02 08:40:00,
2013-05-02 04:45:00,40.3,26.7,30.33,SSW,205,6.3,7.6,58,0.00,,---,0.00,VWS V14.01,2013-05-02 08:45:00,
2013-05-02 04:55:00,40.3,26.7,30.33,SW,219,4.9,8.1,58,0.00,,---,0.00,VWS V14.01,2013-05-02 08:55:00,
2013-05-02 05:00:00,40.3,26.7,30.33,SSW,211,7.2,8.5,58,0.00,,---,0.00,VWS V14.01,2013-05-02 09:00:00,
2013-05-02 05:10:00,40.3,26.7,30.33,SSW,211,6.7,8.1,58,0.00,,---,0.00,VWS V14.01,2013-05-02 09:10:00,
2013-05-02 05:15:00,40.1,26.5,30.33,SSW,207,7.6,8.9,58,0.00,,---,0.00,VWS V14.01,2013-05-02 09:15:00,
2013-05-02 05:25:00,39.0,25.9,30.33,SSW,207,6.3,7.2,59,0.00,,---,0.00,VWS V14.01,2013-05-02 09:25:00,
2013-05-02 05:30:00,39.0,25.9,30.33,SSW,211,5.8,8.1,59,0.00,,---,0.00,VWS V14.01,2013-05-02 09:30:00,
2013-05-02 05:40:00,39.4,26.3,30.33,SW,214,7.2,8.9,59,0.00,,---,0.00,VWS V14.01,2013-05-02 09:40:00,
2013-05-02 05:45:00,39.2,26.1,30.33,SSW,209,7.2,8.5,59,0.00,,---,0.00,VWS V14.01,2013-05-02 09:45:00,
2013-05-02 05:55:00,38.1,25.1,30.33,SSW,209,5.8,8.5,59,0.00,,---,0.00,VWS V14.01,2013-05-02 09:55:00,
2013-05-02 06:00:00,38.1,25.1,30.33,SSW,211,5.4,7.2,59,0.00,,---,0.00,VWS V14.01,2013-05-02 10:00:00,
2013-05-02 06:10:00,38.3,25.2,30.33,SSW,211,5.8,6.7,59,0.00,,---,0.00,VWS V14.01,2013-05-02 10:10:00,
2013-05-02 06:15:00,38.3,25.2,30.33,SSW,205,6.7,7.6,59,0.00,,---,0.00,VWS V14.01,2013-05-02 10:15:00,
2013-05-02 06:25:00,39.2,26.1,30.33,SSW,211,3.6,7.2,59,0.00,,---,0.00,VWS V14.01,2013-05-02 10:25:00,
2013-05-02 06:30:00,39.4,26.3,30.33,SSW,209,4.5,6.7,59,0.00,,---,0.00,VWS V14.01,2013-05-02 10:30:00,
2013-05-02 06:40:00,39.6,26.4,30.33,SSW,205,6.3,8.5,59,0.00,,---,0.00,VWS V14.01,2013-05-02 10:40:00,
2013-05-02 06:45:00,39.4,27.1,30.33,SSW,204,8.5,8.9,61,0.00,,---,0.00,VWS V14.01,2013-05-02 10:45:00,
2013-05-02 06:55:00,39.6,27.2,30.33,South,188,7.6,8.5,61,0.00,,---,0.00,VWS V14.01,2013-05-02 10:55:00,
2013-05-02 07:00:00,39.6,27.2,30.33,SSW,197,7.6,9.4,61,0.00,,---,0.00,VWS V14.01,2013-05-02 11:00:00,
2013-05-02 07:10:00,40.5,28.1,30.33,SSW,205,6.3,8.1,61,0.00,,---,0.00,VWS V14.01,2013-05-02 11:10:00,
2013-05-02 07:20:00,41.5,29.1,30.33,SSW,205,6.3,8.1,61,0.00,,---,0.00,VWS V14.01,2013-05-02 11:20:00,
2013-05-02 07:25:00,42.3,29.4,30.33,South,170,4.0,7.2,60,0.00,,---,0.00,VWS V14.01,2013-05-02 11:25:00,
2013-05-02 07:35:00,43.2,30.2,30.36,South,177,4.0,7.2,60,0.00,,---,0.00,VWS V14.01,2013-05-02 11:35:00,
2013-05-02 07:40:00,43.3,30.4,30.36,SSE,163,5.4,8.1,60,0.00,,---,0.00,VWS V14.01,2013-05-02 11:40:00,
2013-05-02 07:50:00,44.8,31.8,30.36,SSE,153,5.8,8.5,60,0.00,,---,0.00,VWS V14.01,2013-05-02 11:50:00,
2013-05-02 07:55:00,46.2,33.1,30.36,SSE,160,7.6,9.4,60,0.00,,---,0.00,VWS V14.01,2013-05-02 11:55:00,
2013-05-02 08:05:00,46.9,33.8,30.36,SSE,157,7.6,10.3,60,0.00,,---,0.00,VWS V14.01,2013-05-02 12:05:00,
2013-05-02 08:10:00,47.1,34.0,30.36,SE,146,7.2,9.4,60,0.00,,---,0.00,VWS V14.01,2013-05-02 12:10:00,
2013-05-02 08:20:00,48.2,34.6,30.36,SSE,152,8.5,10.3,59,0.00,,---,0.00,VWS V14.01,2013-05-02 12:20:00,
2013-05-02 08:25:00,48.4,34.7,30.36,SE,143,9.4,10.3,59,0.00,,---,0.00,VWS V14.01,2013-05-02 12:25:00,
2013-05-02 08:35:00,49.8,36.1,30.36,SE,142,1.8,7.6,59,0.00,,---,0.00,VWS V14.01,2013-05-02 12:35:00,
2013-05-02 08:40:00,50.7,36.9,30.36,SE,129,4.9,8.1,59,0.00,,---,0.00,VWS V14.01,2013-05-02 12:40:00,
2013-05-02 08:50:00,51.4,37.2,30.36,ESE,111,4.5,7.2,58,0.00,,---,0.00,VWS V14.01,2013-05-02 12:50:00,
2013-05-02 08:55:00,51.4,37.2,30.36,ESE,122,3.6,6.7,58,0.00,,---,0.00,VWS V14.01,2013-05-02 12:55:00,
2013-05-02 09:05:00,53.8,39.4,30.36,SSE,154,0.0,4.5,58,0.00,,---,0.00,VWS V14.01,2013-05-02 13:05:00,
2013-05-02 09:10:00,54.0,39.5,30.36,SSE,150,0.0,4.5,58,0.00,,---,0.00,VWS V14.01,2013-05-02 13:10:00,
2013-05-02 09:20:00,55.0,40.5,30.36,SSE,150,0.0,1.8,58,0.00,,---,0.00,VWS V14.01,2013-05-02 13:20:00,
2013-05-02 09:25:00,55.0,40.5,30.36,SSE,150,0.0,2.2,58,0.00,,---,0.00,VWS V14.01,2013-05-02 13:25:00,
2013-05-02 09:35:00,55.9,41.4,30.36,SSE,149,3.6,4.9,58,0.00,,---,0.00,VWS V14.01,2013-05-02 13:35:00,
2013-05-02 09:40:00,55.9,41.4,30.36,SSE,149,0.4,4.0,58,0.00,,---,0.00,VWS V14.01,2013-05-02 13:40:00,
2013-05-02 09:45:00,55.9,41.4,30.36,SSE,149,0.0,0.4,58,0.00,,---,0.00,VWS V14.01,2013-05-02 13:45:00,
2013-05-02 09:55:00,55.9,41.4,30.36,WSW,246,2.2,4.5,58,0.00,,---,0.00,VWS V14.01,2013-05-02 13:55:00,
2013-05-02 10:05:00,55.9,41.4,30.36,South,190,7.2,8.1,58,0.00,,---,0.00,VWS V14.01,2013-05-02 14:05:00,
2013-05-02 10:10:00,55.9,41.4,30.36,SSW,197,5.4,7.2,58,0.00,,---,0.00,VWS V14.01,2013-05-02 14:10:00,
2013-05-02 10:15:00,59.2,44.0,30.36,South,184,4.9,8.5,57,0.00,,---,0.00,VWS V14.01,2013-05-02 14:15:00,
2013-05-02 10:20:00,59.2,44.0,30.36,South,184,4.9,9.8,57,0.00,,---,0.00,VWS V14.01,2013-05-02 14:20:00,
2013-05-02 10:25:00,59.4,44.1,30.36,South,176,5.4,12.1,57,0.00,,---,0.00,VWS V14.01,2013-05-02 14:25:00,
2013-05-02 10:35:00,60.1,44.3,30.36,SSE,152,4.5,9.4,56,0.00,,---,0.00,VWS V14.01,2013-05-02 14:35:00,
2013-05-02 10:40:00,60.6,44.8,30.36,South,190,5.8,8.9,56,0.00,,---,0.00,VWS V14.01,2013-05-02 14:40:00,
2013-05-02 10:55:00,61.9,46.0,30.36,SSW,198,1.3,8.5,56,0.00,,---,0.00,VWS V14.01,2013-05-02 14:55:00,
2013-05-02 11:00:00,62.8,46.9,30.36,SE,140,3.6,7.6,56,0.00,,---,0.00,VWS V14.01,2013-05-02 15:00:00,
2013-05-02 11:05:00,62.8,46.9,30.36,South,191,4.5,8.9,56,0.00,,---,0.00,VWS V14.01,2013-05-02 15:05:00,
2013-05-02 11:10:00,61.5,45.7,30.36,West,260,5.8,10.7,56,0.00,,---,0.00,VWS V14.01,2013-05-02 15:10:00,
2013-05-02 11:30:00,63.7,47.7,30.36,South,173,5.8,12.5,56,0.00,,---,0.00,VWS V14.01,2013-05-02 15:30:00,
2013-05-02 11:35:00,63.5,47.5,30.36,SSW,200,9.4,10.3,56,0.00,,---,0.00,VWS V14.01,2013-05-02 15:35:00,
2013-05-02 11:40:00,63.5,47.5,30.36,SE,135,7.2,11.6,56,0.00,,---,0.00,VWS V14.01,2013-05-02 15:40:00,
2013-05-02 11:45:00,63.3,47.4,30.36,SSE,163,8.5,12.1,56,0.00,,---,0.00,VWS V14.01,2013-05-02 15:45:00,
2013-05-02 11:50:00,64.0,48.0,30.36,South,174,0.4,10.3,56,0.00,,---,0.00,VWS V14.01,2013-05-02 15:50:00,
2013-05-02 11:55:00,64.4,48.4,30.36,SSW,195,8.9,11.6,56,0.00,,---,0.00,VWS V14.01,2013-05-02 15:55:00,
2013-05-02 12:05:00,64.2,48.2,30.33,South,171,5.4,10.7,56,0.00,,---,0.00,VWS V14.01,2013-05-02 16:05:00,
2013-05-02 12:10:00,64.0,48.0,30.33,ESE,122,0.4,9.8,56,0.00,,---,0.00,VWS V14.01,2013-05-02 16:10:00,
2013-05-02 12:15:00,63.9,47.9,30.33,South,169,8.5,14.8,56,0.00,,---,0.00,VWS V14.01,2013-05-02 16:15:00,
2013-05-02 12:25:00,63.9,47.9,30.33,South,177,6.7,15.2,56,0.00,,---,0.00,VWS V14.01,2013-05-02 16:25:00,
2013-05-02 12:30:00,64.6,48.5,30.33,South,187,6.7,10.7,56,0.00,,---,0.00,VWS V14.01,2013-05-02 16:30:00,
2013-05-02 12:40:00,65.1,49.0,30.33,South,173,8.9,12.5,56,0.00,,---,0.00,VWS V14.01,2013-05-02 16:40:00,
2013-05-02 12:45:00,64.9,48.9,30.33,SW,216,5.4,13.0,56,0.00,,---,0.00,VWS V14.01,2013-05-02 16:45:00,
2013-05-02 12:55:00,66.0,49.4,30.33,SW,214,6.7,14.3,55,0.00,,---,0.00,VWS V14.01,2013-05-02 16:55:00,
2013-05-02 13:00:00,65.5,48.9,30.33,SE,130,0.0,12.1,55,0.00,,---,0.00,VWS V14.01,2013-05-02 17:00:00,
2013-05-02 13:10:00,65.8,49.2,30.33,SSW,195,11.2,13.9,55,0.00,,---,0.00,VWS V14.01,2013-05-02 17:10:00,
2013-05-02 13:15:00,65.8,49.2,30.30,South,174,5.4,11.6,55,0.00,,---,0.00,VWS V14.01,2013-05-02 17:15:00,
2013-05-02 13:25:00,66.4,49.7,30.30,SSW,201,13.0,13.4,55,0.00,,---,0.00,VWS V14.01,2013-05-02 17:25:00,
2013-05-02 13:30:00,66.6,49.9,30.30,SSE,164,5.4,13.9,55,0.00,,---,0.00,VWS V14.01,2013-05-02 17:30:00,
2013-05-02 13:40:00,67.3,50.6,30.30,SSW,198,8.9,11.2,55,0.00,,---,0.00,VWS V14.01,2013-05-02 17:40:00,
2013-05-02 13:45:00,66.9,50.2,30.30,WSW,246,8.1,9.4,55,0.00,,---,0.00,VWS V14.01,2013-05-02 17:45:00,
2013-05-02 13:50:00,66.6,49.9,30.30,WSW,242,2.7,10.7,55,0.00,,---,0.00,VWS V14.01,2013-05-02 17:50:00,
2013-05-02 14:00:00,66.9,50.2,30.30,SSW,201,1.8,19.2,55,0.00,,---,0.00,VWS V14.01,2013-05-02 18:00:00,
2013-05-02 14:05:00,66.9,50.2,30.30,NW,311,0.0,4.9,55,0.00,,---,0.00,VWS V14.01,2013-05-02 18:05:00,
2013-05-02 14:15:00,67.6,50.9,30.30,ENE,61,5.8,11.2,55,0.00,,---,0.00,VWS V14.01,2013-05-02 18:15:00,
2013-05-02 14:20:00,67.3,50.6,30.30,South,174,7.2,11.6,55,0.00,,---,0.00,VWS V14.01,2013-05-02 18:20:00,
2013-05-02 14:30:00,68.9,51.6,30.30,South,171,6.3,11.6,54,0.00,,---,0.00,VWS V14.01,2013-05-02 18:30:00,
2013-05-02 14:35:00,68.4,51.6,30.30,SE,129,8.1,13.9,55,0.00,,---,0.00,VWS V14.01,2013-05-02 18:35:00,
2013-05-02 14:45:00,68.5,51.8,30.27,SSE,153,11.2,11.2,55,0.00,,---,0.00,VWS V14.01,2013-05-02 18:45:00,
2013-05-02 14:50:00,67.6,50.9,30.27,SSW,205,8.1,15.7,55,0.00,,---,0.00,VWS V14.01,2013-05-02 18:50:00,
2013-05-02 15:00:00,68.9,51.6,30.27,SE,130,4.5,6.7,54,0.00,,---,0.00,VWS V14.01,2013-05-02 19:00:00,
2013-05-02 15:05:00,68.9,51.6,30.27,ENE,77,8.9,11.2,54,0.00,,---,0.00,VWS V14.01,2013-05-02 19:05:00,
2013-05-02 15:10:00,69.1,51.8,30.27,East,85,4.0,10.3,54,0.00,,---,0.00,VWS V14.01,2013-05-02 19:10:00,
2013-05-02 15:20:00,68.5,51.8,30.27,ENE,76,4.0,11.2,55,0.00,,---,0.00,VWS V14.01,2013-05-02 19:20:00,
2013-05-02 15:25:00,69.3,51.9,30.27,East,98,3.6,9.4,54,0.00,,---,0.00,VWS V14.01,2013-05-02 19:25:00,
2013-05-02 15:35:00,69.6,52.3,30.27,NE,45,4.0,5.4,54,0.00,,---,0.00,VWS V14.01,2013-05-02 19:35:00,
2013-05-02 15:40:00,69.6,52.3,30.27,ENE,60,6.7,8.1,54,0.00,,---,0.00,VWS V14.01,2013-05-02 19:40:00,
2013-05-02 15:50:00,70.0,52.6,30.27,ENE,69,11.6,11.6,54,0.00,,---,0.00,VWS V14.01,2013-05-02 19:50:00,
2013-05-02 15:55:00,69.1,51.8,30.27,East,88,8.1,13.9,54,0.00,,---,0.00,VWS V14.01,2013-05-02 19:55:00,
2013-05-02 16:00:00,68.9,51.6,30.24,ENE,66,0.9,11.2,54,0.00,,---,0.00,VWS V14.01,2013-05-02 20:00:00,
2013-05-02 16:10:00,68.5,51.8,30.24,ENE,61,8.9,8.9,55,0.00,,---,0.00,VWS V14.01,2013-05-02 20:10:00,
2013-05-02 16:15:00,69.3,51.9,30.24,East,83,0.9,8.9,54,0.00,,---,0.00,VWS V14.01,2013-05-02 20:15:00,
2013-05-02 16:20:00,68.9,51.6,30.24,East,94,2.2,5.8,54,0.00,,---,0.00,VWS V14.01,2013-05-02 20:20:00,
2013-05-02 16:25:00,69.1,51.8,30.24,ENE,74,6.7,14.3,54,0.00,,---,0.00,VWS V14.01,2013-05-02 20:25:00,
2013-05-02 16:30:00,68.9,51.6,30.24,ENE,66,7.2,11.2,54,0.00,,---,0.00,VWS V14.01,2013-05-02 20:30:00,
2013-05-02 16:35:00,69.3,51.9,30.24,NNE,21,7.6,9.4,54,0.00,,---,0.00,VWS V14.01,2013-05-02 20:35:00,
2013-05-02 16:45:00,69.1,51.8,30.24,ENE,74,6.3,11.6,54,0.00,,---,0.00,VWS V14.01,2013-05-02 20:45:00,
2013-05-02 16:50:00,68.5,51.8,30.24,East,80,5.4,9.8,55,0.00,,---,0.00,VWS V14.01,2013-05-02 20:50:00,
2013-05-02 17:00:00,68.0,51.2,30.24,ENE,77,2.7,11.2,55,0.00,,---,0.00,VWS V14.01,2013-05-02 21:00:00,
2013-05-02 17:05:00,67.1,50.4,30.24,East,80,4.0,6.3,55,0.00,,---,0.00,VWS V14.01,2013-05-02 21:05:00,
2013-05-02 17:10:00,67.3,50.6,30.24,ESE,112,6.3,8.9,55,0.00,,---,0.00,VWS V14.01,2013-05-02 21:10:00,
2013-05-02 17:20:00,67.3,50.6,30.24,East,90,2.7,4.5,55,0.00,,---,0.00,VWS V14.01,2013-05-02 21:20:00,
2013-05-02 17:25:00,67.8,51.1,30.24,ENE,69,0.0,6.7,55,0.00,,---,0.00,VWS V14.01,2013-05-02 21:25:00,
2013-05-02 17:35:00,68.0,51.2,30.21,ENE,69,4.5,6.7,55,0.00,,---,0.00,VWS V14.01,2013-05-02 21:35:00,
2013-05-02 17:40:00,67.3,50.6,30.21,ENE,66,7.2,8.9,55,0.00,,---,0.00,VWS V14.01,2013-05-02 21:40:00,
2013-05-02 17:50:00,67.6,50.9,30.21,NE,53,5.4,5.4,55,0.00,,---,0.00,VWS V14.01,2013-05-02 21:50:00,
2013-05-02 17:55:00,67.6,50.9,30.21,ENE,63,4.0,7.2,55,0.00,,---,0.00,VWS V14.01,2013-05-02 21:55:00,
2013-05-02 18:00:00,66.9,50.2,30.21,East,84,3.6,5.4,55,0.00,,---,0.00,VWS V14.01,2013-05-02 22:00:00,
2013-05-02 18:10:00,67.6,50.9,30.21,ENE,66,0.0,4.0,55,0.00,,---,0.00,VWS V14.01,2013-05-02 22:10:00,
2013-05-02 18:15:00,68.7,51.9,30.21,ENE,66,0.0,0.0,55,0.00,,---,0.00,VWS V14.01,2013-05-02 22:15:00,
2013-05-02 18:20:00,69.3,51.9,30.21,ENE,57,2.2,4.9,54,0.00,,---,0.00,VWS V14.01,2013-05-02 22:20:00,
2013-05-02 18:30:00,67.3,50.6,30.21,ESE,109,0.0,6.3,55,0.00,,---,0.00,VWS V14.01,2013-05-02 22:30:00,
2013-05-02 18:35:00,66.6,49.9,30.21,ESE,109,0.0,0.0,55,0.00,,---,0.00,VWS V14.01,2013-05-02 22:35:00,
2013-05-02 18:45:00,66.0,49.4,30.21,East,87,0.0,3.6,55,0.00,,---,0.00,VWS V14.01,2013-05-02 22:45:00,
2013-05-02 18:50:00,66.0,49.4,30.21,East,88,0.0,0.0,55,0.00,,---,0.00,VWS V14.01,2013-05-02 22:50:00,
2013-05-02 18:55:00,65.3,48.7,30.21,East,88,0.0,0.0,55,0.00,,---,0.00,VWS V14.01,2013-05-02 22:55:00,
2013-05-02 19:05:00,63.5,47.5,30.21,North,357,1.3,2.2,56,0.00,,---,0.00,VWS V14.01,2013-05-02 23:05:00,
2013-05-02 19:10:00,60.6,44.8,30.21,NNE,12,2.2,2.7,56,0.00,,---,0.00,VWS V14.01,2013-05-02 23:10:00,
2013-05-02 19:20:00,56.8,41.8,30.21,North,5,0.0,0.0,57,0.00,,---,0.00,VWS V14.01,2013-05-02 23:20:00,
2013-05-02 19:25:00,55.9,41.4,30.21,West,266,4.0,4.5,58,0.00,,---,0.00,VWS V14.01,2013-05-02 23:25:00,
2013-05-02 19:30:00,55.4,40.9,30.21,West,266,3.6,4.9,58,0.00,,---,0.00,VWS V14.01,2013-05-02 23:30:00,
2013-05-02 19:40:00,55.2,40.7,30.21,West,271,4.0,4.9,58,0.00,,---,0.00,VWS V14.01,2013-05-02 23:40:00,
2013-05-02 19:45:00,54.9,40.4,30.21,WNW,284,3.6,5.4,58,0.00,,---,0.00,VWS V14.01,2013-05-02 23:45:00,
2013-05-02 19:50:00,53.4,39.0,30.21,WNW,285,1.3,4.0,58,0.00,,---,0.00,VWS V14.01,2013-05-02 23:50:00,
2013-05-02 20:00:00,52.7,38.3,30.21,WNW,285,3.6,4.0,58,0.00,,---,0.00,VWS V14.01,2013-05-03 00:00:00,
2013-05-02 20:05:00,52.7,38.3,30.21,WNW,284,3.6,4.5,58,0.00,,---,0.00,VWS V14.01,2013-05-03 00:05:00,
2013-05-02 20:10:00,51.8,37.5,30.21,WNW,283,4.5,4.5,58,0.00,,---,0.00,VWS V14.01,2013-05-03 00:10:00,
2013-05-02 20:15:00,54.9,40.4,30.21,NW,316,13.0,13.0,58,0.00,,---,0.00,VWS V14.01,2013-05-03 00:15:00,
2013-05-02 20:20:00,55.2,40.7,30.21,NW,319,9.8,13.0,58,0.00,,---,0.00,VWS V14.01,2013-05-03 00:20:00,
2013-05-02 20:25:00,54.9,40.4,30.21,North,350,4.0,12.5,58,0.00,,---,0.00,VWS V14.01,2013-05-03 00:25:00,
2013-05-02 20:35:00,53.8,39.4,30.21,NNW,345,6.3,10.3,58,0.00,,---,0.00,VWS V14.01,2013-05-03 00:35:00,
2013-05-02 20:40:00,53.6,39.2,30.21,NNW,336,7.6,9.8,58,0.00,,---,0.00,VWS V14.01,2013-05-03 00:40:00,
2013-05-02 20:45:00,53.6,39.2,30.21,North,350,7.2,9.8,58,0.00,,---,0.00,VWS V14.01,2013-05-03 00:45:00,
2013-05-02 20:55:00,53.1,38.7,30.21,NNW,338,5.4,9.4,58,0.00,,---,0.00,VWS V14.01,2013-05-03 00:55:00,
2013-05-02 21:00:00,53.1,38.7,30.24,North,354,4.0,9.8,58,0.00,,---,0.00,VWS V14.01,2013-05-03 01:00:00,
2013-05-02 21:10:00,49.5,35.7,30.24,North,356,0.0,0.9,59,0.00,,---,0.00,VWS V14.01,2013-05-03 01:10:00,
2013-05-02 21:15:00,47.8,34.2,30.24,North,356,0.0,0.9,59,0.00,,---,0.00,VWS V14.01,2013-05-03 01:15:00,
2013-05-02 21:25:00,45.7,31.3,30.24,North,356,0.0,0.0,57,0.00,,---,0.00,VWS V14.01,2013-05-03 01:25:00,
2013-05-02 21:30:00,44.8,30.5,30.24,North,356,0.0,0.0,57,0.00,,---,0.00,VWS V14.01,2013-05-03 01:30:00,
2013-05-02 21:35:00,44.4,30.2,30.24,North,356,0.0,0.0,57,0.00,,---,0.00,VWS V14.01,2013-05-03 01:35:00,
2013-05-02 21:40:00,43.7,29.5,30.24,North,356,0.0,0.0,57,0.00,,---,0.00,VWS V14.01,2013-05-03 01:40:00,
2013-05-02 21:45:00,43.5,30.6,30.24,North,356,0.0,0.0,60,0.00,,---,0.00,VWS V14.01,2013-05-03 01:45:00,
2013-05-02 21:50:00,43.0,30.1,30.24,North,356,0.0,0.0,60,0.00,,---,0.00,VWS V14.01,2013-05-03 01:50:00,
2013-05-02 21:55:00,43.3,30.4,30.24,North,356,0.0,0.0,60,0.00,,---,0.00,VWS V14.01,2013-05-03 01:55:00,
2013-05-02 22:05:00,43.2,30.2,30.21,North,356,0.0,0.0,60,0.00,,---,0.00,VWS V14.01,2013-05-03 02:05:00,
2013-05-02 22:10:00,43.5,30.6,30.21,North,356,0.0,0.0,60,0.00,,---,0.00,VWS V14.01,2013-05-03 02:10:00,
2013-05-02 22:15:00,42.4,29.5,30.21,North,356,0.0,0.0,60,0.00,,---,0.00,VWS V14.01,2013-05-03 02:15:00,
2013-05-02 22:25:00,42.1,29.2,30.21,North,356,0.0,0.0,60,0.00,,---,0.00,VWS V14.01,2013-05-03 02:25:00,
2013-05-02 22:30:00,41.5,29.1,30.21,North,356,0.0,0.0,61,0.00,,---,0.00,VWS V14.01,2013-05-03 02:30:00,
2013-05-02 22:40:00,40.6,29.0,30.21,North,356,0.0,0.0,63,0.00,,---,0.00,VWS V14.01,2013-05-03 02:40:00,
2013-05-02 22:45:00,41.0,29.4,30.21,North,356,0.0,0.0,63,0.00,,---,0.00,VWS V14.01,2013-05-03 02:45:00,
2013-05-02 22:50:00,41.2,29.6,30.21,North,356,0.0,0.0,63,0.00,,---,0.00,VWS V14.01,2013-05-03 02:50:00,
2013-05-02 23:00:00,42.3,29.4,30.21,North,356,0.0,0.0,60,0.00,,---,0.00,VWS V14.01,2013-05-03 03:00:00,
2013-05-02 23:05:00,41.2,29.6,30.21,North,356,0.0,0.0,63,0.00,,---,0.00,VWS V14.01,2013-05-03 03:05:00,
2013-05-02 23:10:00,40.6,29.0,30.21,North,356,0.0,0.0,63,0.00,,---,0.00,VWS V14.01,2013-05-03 03:10:00,
2013-05-02 23:15:00,39.9,30.6,30.21,North,356,0.0,0.0,69,0.00,,---,0.00,VWS V14.01,2013-05-03 03:15:00,
2013-05-02 23:20:00,40.3,29.8,30.21,North,356,0.0,0.0,66,0.00,,---,0.00,VWS V14.01,2013-05-03 03:20:00,
2013-05-02 23:30:00,40.3,30.6,30.21,North,356,0.0,0.0,68,0.00,,---,0.00,VWS V14.01,2013-05-03 03:30:00,
2013-05-02 23:35:00,40.3,30.6,30.21,North,356,0.0,0.0,68,0.00,,---,0.00,VWS V14.01,2013-05-03 03:35:00,
2013-05-02 23:40:00,40.3,30.6,30.21,North,356,0.9,0.9,68,0.00,,---,0.00,VWS V14.01,2013-05-03 03:40:00,
2013-05-02 23:50:00,39.9,30.6,30.21,North,356,0.0,0.0,69,0.00,,---,0.00,VWS V14.01,2013-05-03 03:50:00,
2013-05-02 23:55:00,40.5,30.8,30.21,North,356,2.2,2.2,68,0.00,,---,0.00,VWS V14.01,2013-05-03 03:55:00,